Time;durP1;ratioP1;P1;durP2;ratioP2;P2;SDS_P1;SDS_P2;PMS_P1;PMS_P2;Temp;Humidity;BMP_temperature;BMP_pressure;BME280_temperature;BME280_humidity;BME280_pressure;Samples;Min_cycle;Max_cycle;Signal;HPM_P1;HPM_P2
2022/03/10 00:00:11;;;;;;;;;;;;;;;6.23;45.77;101273.53;6111190;23;6810;-75
2022/03/10 00:02:37;;;;;;;;;;;;;;;6.19;46.17;101284.25;6108392;23;6946;-74
2022/03/10 00:05:04;;;;;;;;;;;;;;;6.14;45.98;101288.09;6111312;23;6951;-74
2022/03/10 00:07:30;;;;;;;;;;;;;;;6.08;46.14;101285.03;6111264;23;6862;-74
2022/03/10 00:09:55;;;;;;;;;;;;;;;6.02;46.20;101287.09;6110093;23;6897;-74
2022/03/10 00:12:21;;;;;;;;;;;;;;;5.96;46.34;101290.00;6107918;23;6771;-74
2022/03/10 00:14:47;;;;;;;;;;;;;;;5.90;46.15;101298.03;6110142;23;6854;-74
2022/03/10 00:17:13;;;;;;;;;;;;;;;5.86;46.21;101285.81;6109525;23;6786;-74
2022/03/10 00:19:38;;;;;;;;;;;;;;;5.83;46.30;101286.44;6108532;23;7000;-74
2022/03/10 00:22:04;;;;;;;;;;;;;;;5.84;46.36;101287.34;6110195;23;6838;-74
2022/03/10 00:24:30;;;;;;;;;;;;;;;5.83;47.08;101285.59;6109233;23;6763;-74
2022/03/10 00:26:56;;;;;;;;;;;;;;;5.86;46.54;101296.00;6087894;23;6783;-74
2022/03/10 00:29:21;;;;;;;;;;;;;;;5.89;46.57;101288.63;6061419;23;6947;-74
2022/03/10 00:31:47;;;;;;;;;;;;;;;5.91;46.63;101291.28;6109840;23;6771;-74
2022/03/10 00:34:13;;;;;;;;;;;;;;;5.96;46.54;101298.53;6087603;23;6795;-74
2022/03/10 00:36:38;;;;;;;;;;;;;;;5.98;46.59;101303.75;6110968;23;7090;-74
2022/03/10 00:39:04;;;;;;;;;;;;;;;5.95;46.83;101294.19;6087789;23;6994;-74
2022/03/10 00:41:31;;;;;;;;;;;;;;;5.96;46.88;101300.19;6132796;23;7036;-74
2022/03/10 00:43:56;;;;;;;;;;;;;;;5.95;47.19;101299.28;6111783;23;7058;-74
2022/03/10 00:46:22;;;;;;;;;;;;;;;5.95;46.30;101299.28;6085328;23;6967;-74
2022/03/10 00:48:47;;;;;;;;;;;;;;;5.94;47.07;101294.97;6109040;23;6778;-74
2022/03/10 00:51:13;;;;;;;;;;;;;;;5.91;46.75;101298.91;6111165;23;6790;-74
2022/03/10 00:53:39;;;;;;;;;;;;;;;5.89;46.78;101292.81;6135608;23;7159;-74
2022/03/10 00:56:05;;;;;;;;;;;;;;;5.87;47.08;101302.88;6087002;23;8320;-74
2022/03/10 00:58:30;;;;;;;;;;;;;;;5.87;46.95;101299.44;6110844;23;6779;-74
2022/03/10 01:00:56;;;;;;;;;;;;;;;5.90;47.33;101294.59;6110045;23;7464;-74
2022/03/10 01:03:23;;;;;;;;;;;;;;;5.93;47.18;101300.81;6108779;23;6967;-74
2022/03/10 01:05:49;;;;;;;;;;;;;;;5.95;46.95;101301.84;6087802;23;6783;-74
2022/03/10 01:08:15;;;;;;;;;;;;;;;5.98;46.90;101298.66;6111576;23;6770;-74
2022/03/10 01:10:41;;;;;;;;;;;;;;;5.98;46.93;101296.13;6110834;23;6996;-74
2022/03/10 01:13:16;;;;;;;;;;;;;;;5.98;46.90;101291.91;6110653;23;6766;-74
2022/03/10 01:15:45;;;;;;;;;;;;;;;5.98;46.95;101294.44;6110500;23;6783;-74
2022/03/10 01:18:11;;;;;;;;;;;;;;;6.01;46.85;101298.03;6110711;23;6782;-74
2022/03/10 01:20:37;;;;;;;;;;;;;;;6.00;46.83;101301.34;6110661;23;7032;-74
2022/03/10 01:23:03;;;;;;;;;;;;;;;6.01;46.83;101298.03;6085443;23;7172;-74
2022/03/10 01:25:29;;;;;;;;;;;;;;;6.03;46.65;101301.59;6111061;23;6798;-74
2022/03/10 01:27:55;;;;;;;;;;;;;;;6.02;47.09;101299.84;6110400;23;6970;-74
2022/03/10 01:30:21;;;;;;;;;;;;;;;6.03;46.54;101296.53;6109629;23;6862;-74
2022/03/10 01:32:47;;;;;;;;;;;;;;;6.06;47.05;101305.28;6112204;23;7008;-74
2022/03/10 01:35:15;;;;;;;;;;;;;;;6.06;46.99;101291.66;6087906;23;6966;-74
2022/03/10 01:37:41;;;;;;;;;;;;;;;6.07;46.76;101294.34;6113134;23;6889;-73
2022/03/10 01:40:14;;;;;;;;;;;;;;;6.09;46.82;101300.44;6112050;23;6803;-74
2022/03/10 01:42:41;;;;;;;;;;;;;;;6.13;46.61;101298.13;6086964;23;6965;-74
2022/03/10 01:45:09;;;;;;;;;;;;;;;6.14;46.51;101295.72;6088473;23;6990;-74
2022/03/10 01:47:36;;;;;;;;;;;;;;;6.12;46.37;101287.06;6110689;23;6794;-74
2022/03/10 01:50:02;;;;;;;;;;;;;;;6.10;46.35;101291.16;6114376;23;7912;-74
2022/03/10 01:52:29;;;;;;;;;;;;;;;6.07;46.46;101291.81;6111030;23;6867;-74
2022/03/10 01:54:56;;;;;;;;;;;;;;;6.04;46.50;101285.56;6112141;23;6783;-74
2022/03/10 01:57:24;;;;;;;;;;;;;;;6.00;46.60;101291.16;6112704;23;7183;-74
2022/03/10 01:59:52;;;;;;;;;;;;;;;5.96;46.54;101285.81;6112868;23;6786;-74
2022/03/10 02:02:17;;;;;;;;;;;;;;;5.94;46.90;101289.88;6110328;23;6798;-74
2022/03/10 02:04:43;;;;;;;;;;;;;;;5.94;46.28;101286.44;6111158;23;6882;-74
2022/03/10 02:10:16;;;;;;;;;;;;;;;5.94;46.63;101277.16;6111413;23;6830;-74
2022/03/10 02:12:40;;;;;;;;;;;;;;;5.93;46.60;101275.38;6115149;23;7118;-74
2022/03/10 02:18:05;;;;;;;;;;;;;;;5.90;47.08;101275.16;6114216;23;6934;-74
2022/03/10 02:20:31;;;;;;;;;;;;;;;5.90;46.26;101274.25;6111113;23;7202;-74
2022/03/10 02:22:57;;;;;;;;;;;;;;;5.90;46.62;101276.78;6108718;23;7139;-74
2022/03/10 02:25:25;;;;;;;;;;;;;;;5.89;46.39;101268.28;6085990;23;7233;-74
2022/03/10 02:27:56;;;;;;;;;;;;;;;5.89;46.79;101269.91;6109899;23;7046;-74
2022/03/10 02:30:25;;;;;;;;;;;;;;;5.91;47.09;101268.38;6113271;23;6783;-74
2022/03/10 02:32:51;;;;;;;;;;;;;;;5.91;46.48;101271.84;6112153;23;6817;-74
2022/03/10 02:35:17;;;;;;;;;;;;;;;5.91;46.56;101266.75;6111869;23;6851;-74
2022/03/10 02:37:45;;;;;;;;;;;;;;;5.92;46.79;101270.16;6110123;23;7221;-74
2022/03/10 02:40:11;;;;;;;;;;;;;;;5.89;46.61;101272.47;6112508;23;6783;-74
2022/03/10 02:42:37;;;;;;;;;;;;;;;5.87;46.22;101274.00;6085825;23;6924;-74
2022/03/10 02:45:04;;;;;;;;;;;;;;;5.82;46.07;101271.09;6110197;23;6784;-74
2022/03/10 02:47:29;;;;;;;;;;;;;;;5.80;46.57;101276.03;6108971;23;6783;-74
2022/03/10 02:49:55;;;;;;;;;;;;;;;5.76;46.75;101271.47;6109178;23;6927;-74
2022/03/10 02:52:21;;;;;;;;;;;;;;;5.74;45.97;101270.44;6109749;23;7173;-74
2022/03/10 02:54:46;;;;;;;;;;;;;;;5.70;46.77;101261.69;6109780;23;6940;-74
2022/03/10 02:57:13;;;;;;;;;;;;;;;5.66;46.20;101264.72;6112366;23;6774;-74
2022/03/10 02:59:39;;;;;;;;;;;;;;;5.62;46.82;101261.81;6108949;23;6787;-74
2022/03/10 03:02:05;;;;;;;;;;;;;;;5.56;46.34;101264.75;6087114;23;6771;-74
2022/03/10 03:04:31;;;;;;;;;;;;;;;5.49;46.23;101265.00;6113575;23;6778;-74
2022/03/10 03:06:57;;;;;;;;;;;;;;;5.44;46.83;101261.22;6089425;23;6957;-74
2022/03/10 03:09:23;;;;;;;;;;;;;;;5.39;46.75;101261.69;6115183;23;6778;-74
2022/03/10 03:11:48;;;;;;;;;;;;;;;5.38;46.75;101269.22;6091208;23;6795;-74
2022/03/10 03:14:14;;;;;;;;;;;;;;;5.36;46.57;101275.81;6117980;23;7093;-74
2022/03/10 03:16:40;;;;;;;;;;;;;;;5.32;46.67;101272.16;6113456;23;6774;-74
2022/03/10 03:19:06;;;;;;;;;;;;;;;5.32;47.28;101277.22;6088584;23;6879;-74
2022/03/10 03:21:32;;;;;;;;;;;;;;;5.31;47.09;101274.56;6114295;23;7050;-74
2022/03/10 03:23:58;;;;;;;;;;;;;;;5.31;47.20;101278.00;6116726;23;7155;-74
2022/03/10 03:26:24;;;;;;;;;;;;;;;5.30;47.40;101277.84;6117941;23;6849;-74
2022/03/10 03:28:49;;;;;;;;;;;;;;;5.28;47.43;101282.81;6114376;23;7221;-74
2022/03/10 03:31:16;;;;;;;;;;;;;;;5.28;46.84;101277.72;6114556;23;6814;-74
2022/03/10 03:33:42;;;;;;;;;;;;;;;5.27;47.12;101276.84;6141141;23;7038;-74
2022/03/10 03:36:08;;;;;;;;;;;;;;;5.26;46.72;101271.63;6115782;23;6831;-74
2022/03/10 03:38:35;;;;;;;;;;;;;;;5.25;46.81;101282.56;6116575;23;6868;-74
2022/03/10 03:41:01;;;;;;;;;;;;;;;5.22;47.19;101295.91;6113259;23;6790;-74
2022/03/10 03:43:27;;;;;;;;;;;;;;;5.21;46.70;101278.88;6091650;23;7171;-74
2022/03/10 03:45:53;;;;;;;;;;;;;;;5.21;47.30;101283.94;6116398;23;6958;-74
2022/03/10 03:48:18;;;;;;;;;;;;;;;5.19;47.81;101272.78;6114859;23;6779;-74
2022/03/10 03:50:44;;;;;;;;;;;;;;;5.17;47.32;101279.38;6116916;23;7098;-74
2022/03/10 03:53:09;;;;;;;;;;;;;;;5.14;46.86;101285.09;6114673;23;6782;-74
2022/03/10 03:55:35;;;;;;;;;;;;;;;5.13;47.57;101279.88;6116400;23;7811;-74
2022/03/10 03:58:01;;;;;;;;;;;;;;;5.10;47.66;101285.56;6114234;23;6849;-74
2022/03/10 04:00:26;;;;;;;;;;;;;;;5.08;46.96;101282.03;6115151;23;7093;-74
2022/03/10 04:02:54;;;;;;;;;;;;;;;5.10;47.71;101289.78;6112632;23;6779;-74
2022/03/10 04:05:19;;;;;;;;;;;;;;;5.09;47.89;101282.94;6087351;23;6928;-74
2022/03/10 04:07:46;;;;;;;;;;;;;;;5.09;47.49;101293.09;6113878;23;7418;-74
2022/03/10 04:10:11;;;;;;;;;;;;;;;5.08;47.47;101286.22;6111224;23;7038;-74
2022/03/10 04:12:37;;;;;;;;;;;;;;;5.06;47.24;101293.72;6110702;23;6770;-74
2022/03/10 04:15:04;;;;;;;;;;;;;;;5.06;47.54;101288.63;6112025;23;7166;-74
2022/03/10 04:17:30;;;;;;;;;;;;;;;5.06;47.22;101290.28;6111171;23;6778;-74
2022/03/10 04:19:56;;;;;;;;;;;;;;;5.06;47.39;101291.19;6136797;23;7181;-74
2022/03/10 04:22:22;;;;;;;;;;;;;;;5.07;47.75;101300.56;6110504;23;7140;-74
2022/03/10 04:24:47;;;;;;;;;;;;;;;5.09;47.94;101300.72;6110993;23;7025;-74
2022/03/10 04:27:13;;;;;;;;;;;;;;;5.09;47.59;101303.25;6110654;23;6995;-74
2022/03/10 04:29:39;;;;;;;;;;;;;;;5.09;48.08;101309.22;6110756;23;6790;-74
2022/03/10 04:32:05;;;;;;;;;;;;;;;5.08;47.61;101299.81;6110774;23;6975;-74
2022/03/10 04:34:30;;;;;;;;;;;;;;;5.07;47.50;101300.56;6110722;23;7047;-74
2022/03/10 04:36:56;;;;;;;;;;;;;;;5.07;47.93;101302.22;6110968;23;7087;-74
2022/03/10 04:39:22;;;;;;;;;;;;;;;5.06;47.56;101305.53;6111527;23;6859;-74
2022/03/10 04:41:48;;;;;;;;;;;;;;;5.04;47.45;101305.41;6111602;23;6925;-74
2022/03/10 04:44:13;;;;;;;;;;;;;;;5.01;47.28;101307.66;6088213;23;7067;-74
2022/03/10 04:46:39;;;;;;;;;;;;;;;4.98;48.24;101307.41;6112733;23;6929;-74
2022/03/10 04:49:05;;;;;;;;;;;;;;;4.95;47.09;101310.59;6113140;23;6861;-75
2022/03/10 04:51:31;;;;;;;;;;;;;;;4.92;47.81;101305.25;6110212;23;7027;-74
2022/03/10 04:53:57;;;;;;;;;;;;;;;4.89;47.53;101310.06;6112018;23;6767;-74
2022/03/10 04:56:22;;;;;;;;;;;;;;;4.89;47.61;101309.16;6112247;23;6782;-74
2022/03/10 04:58:48;;;;;;;;;;;;;;;4.86;48.26;101310.69;6113457;23;6771;-75
2022/03/10 05:01:13;;;;;;;;;;;;;;;4.83;48.32;101300.28;6087232;23;7385;-74
2022/03/10 05:03:39;;;;;;;;;;;;;;;4.83;47.78;101302.81;6110044;23;6920;-75
2022/03/10 05:06:05;;;;;;;;;;;;;;;4.83;48.26;101299.38;6111469;23;6988;-74
2022/03/10 05:08:31;;;;;;;;;;;;;;;4.81;48.38;101301.78;6109284;23;7022;-74
2022/03/10 05:10:57;;;;;;;;;;;;;;;4.81;48.47;101301.78;6110462;23;7093;-74
2022/03/10 05:13:23;;;;;;;;;;;;;;;4.82;48.13;101298.47;6111012;23;6958;-74
2022/03/10 05:15:49;;;;;;;;;;;;;;;4.83;48.90;101305.38;6132386;23;6846;-74
2022/03/10 05:18:15;;;;;;;;;;;;;;;4.86;48.04;101304.72;6111643;23;7007;-74
2022/03/10 05:20:40;;;;;;;;;;;;;;;4.88;48.14;101308.31;6108801;23;6786;-74
2022/03/10 05:23:06;;;;;;;;;;;;;;;4.90;47.96;101318.56;6111439;23;6793;-74
2022/03/10 05:25:38;;;;;;;;;;;;;;;4.91;48.54;101320.34;6111001;23;7149;-74
2022/03/10 05:28:13;;;;;;;;;;;;;;;4.91;48.30;101317.81;6113110;23;6778;-74
2022/03/10 05:30:41;;;;;;;;;;;;;;;4.90;48.35;101323.66;6136178;23;6859;-74
2022/03/10 05:33:09;;;;;;;;;;;;;;;4.88;48.51;101320.09;6111568;23;6787;-74
2022/03/10 05:35:35;;;;;;;;;;;;;;;4.88;48.50;101327.72;6112625;23;6790;-74
2022/03/10 05:38:02;;;;;;;;;;;;;;;4.85;48.04;101318.19;6111548;23;7140;-74
2022/03/10 05:40:28;;;;;;;;;;;;;;;4.84;48.32;101319.84;6086843;23;7116;-74
2022/03/10 05:42:55;;;;;;;;;;;;;;;4.83;48.17;101320.59;6112244;23;6935;-74
2022/03/10 05:45:22;;;;;;;;;;;;;;;4.82;48.49;101325.53;6111824;23;7003;-74
2022/03/10 05:47:55;;;;;;;;;;;;;;;4.81;48.16;101323.78;6115004;23;7001;-74
2022/03/10 05:50:22;;;;;;;;;;;;;;;4.80;48.74;101327.94;6088038;23;7847;-74
2022/03/10 05:52:48;;;;;;;;;;;;;;;4.80;47.73;101327.94;6110346;23;7023;-74
2022/03/10 05:55:15;;;;;;;;;;;;;;;4.81;48.24;101326.31;6112614;23;7033;-74
2022/03/10 05:57:42;;;;;;;;;;;;;;;4.81;48.20;101323.78;6112043;23;6794;-74
2022/03/10 06:00:10;;;;;;;;;;;;;;;4.80;48.78;101322.88;6113217;23;6810;-74
2022/03/10 06:02:37;;;;;;;;;;;;;;;4.80;48.42;101319.44;6110039;23;6958;-75
2022/03/10 06:05:04;;;;;;;;;;;;;;;4.79;48.14;101321.09;6112390;23;6782;-74
2022/03/10 06:07:31;;;;;;;;;;;;;;;4.80;47.78;101322.88;6111753;23;7136;-74
2022/03/10 06:09:57;;;;;;;;;;;;;;;4.80;48.69;101330.47;6111469;23;7187;-74
2022/03/10 06:12:26;;;;;;;;;;;;;;;4.81;48.44;101329.72;6136029;23;6812;-74
2022/03/10 06:14:57;;;;;;;;;;;;;;;4.83;48.24;101324.78;6087431;23;8367;-74
2022/03/10 06:17:23;;;;;;;;;;;;;;;4.84;48.21;101321.47;6113187;23;7304;-74
2022/03/10 06:19:49;;;;;;;;;;;;;;;4.88;49.18;101320.09;6113853;23;6863;-74
2022/03/10 06:22:19;;;;;;;;;;;;;;;4.93;48.22;101326.47;6112618;23;7098;-75
2022/03/10 06:24:46;;;;;;;;;;;;;;;4.97;48.10;101325.97;6090782;23;6790;-75
2022/03/10 06:27:13;;;;;;;;;;;;;;;5.04;48.80;101324.84;6113294;23;6866;-75
2022/03/10 06:29:41;;;;;;;;;;;;;;;5.05;48.60;101327.50;6113272;23;6783;-75
2022/03/10 06:32:07;;;;;;;;;;;;;;;5.10;48.21;101326.25;6113485;23;6775;-75
2022/03/10 06:34:37;;;;;;;;;;;;;;;5.14;48.79;101328.28;6113801;23;6783;-74
2022/03/10 06:37:04;;;;;;;;;;;;;;;5.20;48.28;101334.63;6091416;23;6868;-74
2022/03/10 06:39:31;;;;;;;;;;;;;;;5.23;48.28;101337.47;6088686;23;6962;-74
2022/03/10 06:41:57;;;;;;;;;;;;;;;5.27;48.00;101340.41;6113217;23;6950;-74
2022/03/10 06:44:24;;;;;;;;;;;;;;;5.31;48.77;101346.63;6113125;23;7032;-74
2022/03/10 06:46:51;;;;;;;;;;;;;;;5.36;48.02;101344.44;6113121;23;6929;-74
2022/03/10 06:49:16;;;;;;;;;;;;;;;5.40;47.71;101349.06;6113547;23;6786;-74
2022/03/10 06:51:42;;;;;;;;;;;;;;;5.46;47.86;101353.75;6114377;23;6775;-74
2022/03/10 06:54:08;;;;;;;;;;;;;;;5.49;47.75;101351.47;6114046;23;8454;-74
2022/03/10 06:56:34;;;;;;;;;;;;;;;5.54;47.77;101356.16;6112765;23;7203;-74
2022/03/10 06:59:00;;;;;;;;;;;;;;;5.59;47.70;101354.00;6115384;23;6778;-74
2022/03/10 07:01:26;;;;;;;;;;;;;;;5.62;47.80;101349.19;6112524;23;6778;-74
2022/03/10 07:03:51;;;;;;;;;;;;;;;5.66;47.83;101341.03;6089183;23;6858;-74
2022/03/10 07:06:17;;;;;;;;;;;;;;;5.70;47.45;101342.19;6088805;23;7245;-74
2022/03/10 07:08:43;;;;;;;;;;;;;;;5.74;47.57;101336.59;6113017;23;6783;-74
2022/03/10 07:11:09;;;;;;;;;;;;;;;5.78;48.08;101346.25;6114765;23;6798;-75
2022/03/10 07:13:36;;;;;;;;;;;;;;;5.83;47.58;101349.19;6112576;23;6770;-74
2022/03/10 07:16:02;;;;;;;;;;;;;;;5.88;48.13;101352.97;6113975;23;7133;-74
2022/03/10 07:18:27;;;;;;;;;;;;;;;5.92;47.80;101347.41;6113434;23;6770;-74
2022/03/10 07:20:53;;;;;;;;;;;;;;;5.98;48.36;101347.00;6136760;23;6784;-74
2022/03/10 07:23:19;;;;;;;;;;;;;;;6.04;47.63;101347.56;6137834;23;6771;-74
2022/03/10 07:25:44;;;;;;;;;;;;;;;6.11;47.80;101354.03;6112438;23;6779;-74
2022/03/10 07:28:11;;;;;;;;;;;;;;;6.18;48.03;101352.88;6113940;23;6858;-74
2022/03/10 07:30:36;;;;;;;;;;;;;;;6.27;48.22;101352.72;6114374;23;6850;-74
2022/03/10 07:33:03;;;;;;;;;;;;;;;6.32;47.72;101356.53;6110917;23;6987;-74
2022/03/10 07:35:29;;;;;;;;;;;;;;;6.41;47.92;101356.38;6114327;23;6955;-74
2022/03/10 07:37:56;;;;;;;;;;;;;;;6.49;47.69;101356.22;6111850;23;7141;-74
2022/03/10 07:40:22;;;;;;;;;;;;;;;6.58;47.57;101348.41;6114831;23;7102;-74
2022/03/10 07:42:48;;;;;;;;;;;;;;;6.69;48.04;101354.38;6112014;23;6868;-74
2022/03/10 07:45:14;;;;;;;;;;;;;;;6.80;47.93;101352.66;6113477;23;7072;-74
2022/03/10 07:47:39;;;;;;;;;;;;;;;6.91;47.48;101361.16;6088221;23;6866;-74
2022/03/10 07:50:07;;;;;;;;;;;;;;;7.02;47.59;101355.22;6113081;23;6763;-74
2022/03/10 07:52:33;;;;;;;;;;;;;;;7.13;47.79;101358.63;6087751;23;6859;-74
2022/03/10 07:54:59;;;;;;;;;;;;;;;7.25;47.20;101360.31;6112642;23;7192;-74
2022/03/10 07:57:24;;;;;;;;;;;;;;;7.34;47.33;101359.38;6112378;23;7209;-74
2022/03/10 07:59:51;;;;;;;;;;;;;;;7.46;47.45;101353.44;6112863;23;6925;-74
2022/03/10 08:02:18;;;;;;;;;;;;;;;7.57;47.84;101352.56;6111294;23;6782;-74
2022/03/10 08:04:44;;;;;;;;;;;;;;;7.71;47.41;101347.59;6113319;23;6989;-75
2022/03/10 08:07:10;;;;;;;;;;;;;;;7.85;46.96;101348.63;6110609;23;6948;-75
2022/03/10 08:09:37;;;;;;;;;;;;;;;7.97;46.77;101354.66;6087623;23;6778;-75
2022/03/10 08:12:04;;;;;;;;;;;;;;;8.09;47.34;101358.91;6111707;23;7892;-75
2022/03/10 08:14:29;;;;;;;;;;;;;;;8.20;46.73;101358.88;6111896;23;7784;-75
2022/03/10 08:16:55;;;;;;;;;;;;;;;8.32;47.05;101358.03;6113314;23;7028;-75
2022/03/10 08:19:21;;;;;;;;;;;;;;;8.44;46.75;101358.91;6112126;23;7046;-75
2022/03/10 08:21:48;;;;;;;;;;;;;;;8.58;47.27;101362.47;6112914;23;7212;-75
2022/03/10 08:24:14;;;;;;;;;;;;;;;8.72;46.06;101358.34;6136496;23;6950;-75
2022/03/10 08:26:40;;;;;;;;;;;;;;;8.86;46.87;101355.88;6111561;23;6945;-75
2022/03/10 08:29:07;;;;;;;;;;;;;;;9.05;45.37;101357.16;6112770;23;7043;-75
2022/03/10 08:31:32;;;;;;;;;;;;;;;9.20;45.76;101342.88;6110676;23;7021;-75
2022/03/10 08:33:58;;;;;;;;;;;;;;;9.38;45.12;101339.81;6113696;23;6998;-75
2022/03/10 08:36:24;;;;;;;;;;;;;;;9.54;44.43;101337.47;6111408;23;6783;-75
2022/03/10 08:38:49;;;;;;;;;;;;;;;9.71;44.51;101332.59;6113139;23;6766;-75
2022/03/10 08:41:15;;;;;;;;;;;;;;;9.90;44.13;101333.81;6086379;23;6889;-75
2022/03/10 08:43:41;;;;;;;;;;;;;;;10.06;44.30;101335.72;6112127;23;6950;-75
2022/03/10 08:46:07;;;;;;;;;;;;;;;10.22;43.80;101338.47;6113366;23;6893;-75
2022/03/10 08:48:34;;;;;;;;;;;;;;;10.38;43.36;101332.66;6111942;23;6990;-74
2022/03/10 08:51:02;;;;;;;;;;;;;;;10.54;43.07;101323.44;6111792;23;6953;-74
2022/03/10 08:53:29;;;;;;;;;;;;;;;10.68;43.36;101319.16;6111387;23;6805;-74
2022/03/10 08:55:55;;;;;;;;;;;;;;;10.79;42.31;101318.16;6114238;23;6787;-74
2022/03/10 08:58:21;;;;;;;;;;;;;;;10.95;42.72;101319.97;6135689;23;6970;-74
2022/03/10 09:00:47;;;;;;;;;;;;;;;11.09;41.92;101310.56;6111444;23;7868;-74
2022/03/10 09:03:13;;;;;;;;;;;;;;;11.24;42.30;101314.81;6111776;23;6846;-74
2022/03/10 09:05:40;;;;;;;;;;;;;;;11.36;41.41;101315.56;6111885;23;6786;-74
2022/03/10 09:08:06;;;;;;;;;;;;;;;11.49;41.57;101301.78;6111863;23;6779;-74
2022/03/10 09:10:32;;;;;;;;;;;;;;;11.63;41.17;101307.69;6086976;23;7000;-74
2022/03/10 09:12:59;;;;;;;;;;;;;;;11.76;41.21;101304.16;6110057;23;6958;-74
2022/03/10 09:15:26;;;;;;;;;;;;;;;11.91;41.45;101304.16;6112063;23;7019;-75
2022/03/10 09:17:53;;;;;;;;;;;;;;;12.06;41.34;101306.72;6134273;23;7101;-75
2022/03/10 09:20:22;;;;;;;;;;;;;;;12.21;40.95;101296.41;6110226;23;6997;-75
2022/03/10 09:22:48;;;;;;;;;;;;;;;12.36;41.36;101288.72;6134114;23;6936;-75
2022/03/10 09:25:13;;;;;;;;;;;;;;;12.52;40.55;101291.22;6112451;23;6774;-75
2022/03/10 09:27:40;;;;;;;;;;;;;;;12.67;40.92;101291.16;6112146;23;6798;-75
2022/03/10 09:30:09;;;;;;;;;;;;;;;12.78;40.03;101295.19;6113831;23;6783;-75
2022/03/10 09:32:42;;;;;;;;;;;;;;;12.91;40.37;101292.44;6086299;23;7059;-75
2022/03/10 09:35:11;;;;;;;;;;;;;;;13.04;40.49;101288.84;6111153;23;7188;-75
2022/03/10 09:37:37;;;;;;;;;;;;;;;13.18;40.68;101291.22;6111862;23;7014;-75
2022/03/10 09:40:05;;;;;;;;;;;;;;;13.31;39.97;101291.06;6111893;23;6990;-75
2022/03/10 09:42:33;;;;;;;;;;;;;;;13.43;39.05;101277.03;6111548;23;6826;-75
2022/03/10 09:45:10;;;;;;;;;;;;;;;13.55;39.81;101284.53;6114935;23;6994;-75
2022/03/10 09:47:39;;;;;;;;;;;;;;;13.66;38.97;101283.38;6111183;23;7419;-74
2022/03/10 09:50:10;;;;;;;;;;;;;;;13.77;39.65;101277.88;6087303;23;7322;-75
2022/03/10 09:52:36;;;;;;;;;;;;;;;13.85;39.48;101277.41;6113608;23;6787;-75
2022/03/10 09:55:04;;;;;;;;;;;;;;;13.99;38.96;101274.66;6113571;23;6787;-75
2022/03/10 09:57:30;;;;;;;;;;;;;;;14.07;39.01;101269.84;6115839;23;6794;-75
2022/03/10 09:59:58;;;;;;;;;;;;;;;14.16;38.69;101272.88;6113399;23;6929;-75
2022/03/10 10:02:25;;;;;;;;;;;;;;;14.27;38.80;101270.81;6086723;23;6980;-75
2022/03/10 10:04:51;;;;;;;;;;;;;;;14.38;38.05;101269.59;6113530;23;6874;-75
2022/03/10 10:07:27;;;;;;;;;;;;;;;14.52;37.60;101267.66;6115208;23;6869;-75
2022/03/10 10:09:58;;;;;;;;;;;;;;;14.63;37.89;101275.91;6115666;23;6949;-75
2022/03/10 10:12:31;;;;;;;;;;;;;;;14.73;37.43;101264.31;6111726;23;6854;-76
2022/03/10 10:15:00;;;;;;;;;;;;;;;14.84;37.38;101265.66;6136908;23;6860;-75
2022/03/10 10:17:33;;;;;;;;;;;;;;;14.97;37.67;101261.06;6137610;23;7297;-75
2022/03/10 10:20:01;;;;;;;;;;;;;;;15.10;37.87;101260.78;6112192;23;7013;-75
2022/03/10 10:22:29;;;;;;;;;;;;;;;15.27;37.50;101263.19;6113449;23;7569;-75
2022/03/10 10:24:58;;;;;;;;;;;;;;;15.40;37.55;101249.97;6114186;23;6787;-76
2022/03/10 10:27:27;;;;;;;;;;;;;;;15.63;37.73;101265.53;6113595;23;6841;-75
2022/03/10 10:29:56;;;;;;;;;;;;;;;16.26;37.22;101252.50;6113136;23;6783;-75
2022/03/10 10:32:33;;;;;;;;;;;;;;;17.47;35.58;101251.63;6112921;23;7048;-75
2022/03/10 10:35:10;;;;;;;;;;;;;;;18.86;34.54;101238.50;6113775;23;6976;-75
2022/03/10 10:37:39;;;;;;;;;;;;;;;20.22;33.39;101234.88;6114234;23;6794;-75
2022/03/10 10:40:07;;;;;;;;;;;;;;;21.44;32.38;101223.31;6113071;23;8005;-75
2022/03/10 10:42:38;;;;;;;;;;;;;;;22.50;30.73;101222.16;6112247;23;7185;-75
2022/03/10 10:45:32;;;;;;;;;;;;;;;23.52;29.73;101226.66;6113003;23;6951;-75
2022/03/10 10:48:09;;;;;;;;;;;;;;;24.12;28.74;101220.94;6099720;23;6779;-75
2022/03/10 10:50:43;;;;;;;;;;;;;;;24.64;28.30;101211.53;6113393;23;6988;-76
2022/03/10 10:53:30;;;;;;;;;;;;;;;25.14;27.28;101212.47;6112889;23;6863;-76
2022/03/10 10:55:57;;;;;;;;;;;;;;;25.61;26.92;101215.09;6114353;23;6934;-76
2022/03/10 10:58:26;;;;;;;;;;;;;;;26.01;26.22;101208.88;6112894;23;7223;-76
2022/03/10 11:00:51;;;;;;;;;;;;;;;26.31;25.85;101207.03;6112988;23;6795;-76
2022/03/10 11:03:31;;;;;;;;;;;;;;;26.59;25.43;101201.63;6112828;23;6857;-76
2022/03/10 11:05:58;;;;;;;;;;;;;;;27.02;25.16;101196.09;6112698;23;6825;-76
2022/03/10 11:08:28;;;;;;;;;;;;;;;27.48;25.01;101199.19;6112807;23;6787;-76
2022/03/10 11:10:54;;;;;;;;;;;;;;;27.88;24.10;101194.41;6137052;23;7058;-76
2022/03/10 11:13:22;;;;;;;;;;;;;;;28.16;23.74;101184.44;6088415;23;7108;-76
2022/03/10 11:15:51;;;;;;;;;;;;;;;28.45;23.92;101185.81;6112795;23;6787;-76
2022/03/10 11:18:22;;;;;;;;;;;;;;;28.69;23.64;101181.06;6114381;23;6861;-76
2022/03/10 11:20:58;;;;;;;;;;;;;;;28.87;23.42;101181.72;6113783;23;6879;-76
2022/03/10 11:24:03;;;;;;;;;;;;;;;28.88;22.71;101173.78;6113810;23;6783;-74
2022/03/10 11:26:48;;;;;;;;;;;;;;;28.80;22.18;101167.72;6114126;23;6864;-73
2022/03/10 11:29:23;;;;;;;;;;;;;;;28.74;22.30;101171.34;6089694;23;7050;-74
2022/03/10 11:31:49;;;;;;;;;;;;;;;28.74;21.64;101168.69;6112551;23;7073;-74
2022/03/10 11:34:48;;;;;;;;;;;;;;;28.81;22.10;101165.03;6112692;23;6783;-74
2022/03/10 11:37:45;;;;;;;;;;;;;;;28.87;21.37;101158.81;6113001;23;7415;-74
2022/03/10 11:40:20;;;;;;;;;;;;;;;29.04;22.05;101160.31;6113627;23;6904;-74
2022/03/10 11:42:58;;;;;;;;;;;;;;;29.24;21.36;101157.34;6112650;23;6803;-73
2022/03/10 11:45:27;;;;;;;;;;;;;;;29.43;21.50;101155.19;6115142;23;6782;-74
2022/03/10 11:47:53;;;;;;;;;;;;;;;29.52;21.09;101147.13;6114107;23;6783;-74
2022/03/10 11:50:22;;;;;;;;;;;;;;;29.54;20.22;101151.50;6137288;23;6791;-74
2022/03/10 11:53:04;;;;;;;;;;;;;;;29.46;20.53;101144.63;6113717;23;7297;-74
2022/03/10 11:55:46;;;;;;;;;;;;;;;29.32;19.84;101150.16;6088519;23;6955;-74
2022/03/10 11:58:16;;;;;;;;;;;;;;;29.21;19.79;101145.06;6113578;23;6787;-74
2022/03/10 12:00:49;;;;;;;;;;;;;;;29.13;19.63;101141.69;6112836;23;6974;-74
2022/03/10 12:03:23;;;;;;;;;;;;;;;29.10;20.15;101133.81;6113168;23;6867;-74
2022/03/10 12:06:00;;;;;;;;;;;;;;;29.22;19.72;101133.59;6113168;23;6855;-74
2022/03/10 12:08:38;;;;;;;;;;;;;;;29.41;19.75;101130.59;6112657;23;6880;-74
2022/03/10 12:11:06;;;;;;;;;;;;;;;29.39;20.19;101120.06;6087547;23;6990;-74
2022/03/10 12:13:37;;;;;;;;;;;;;;;29.36;19.86;101125.41;6111323;23;6779;-74
2022/03/10 12:16:07;;;;;;;;;;;;;;;29.47;19.41;101125.25;6112090;23;6834;-74
2022/03/10 12:18:43;;;;;;;;;;;;;;;29.54;19.27;101119.84;6112186;23;6950;-74
2022/03/10 12:21:22;;;;;;;;;;;;;;;29.64;19.88;101113.47;6112145;23;7145;-74
2022/03/10 12:24:04;;;;;;;;;;;;;;;29.61;19.23;101108.25;6113199;23;7142;-74
2022/03/10 12:26:39;;;;;;;;;;;;;;;29.46;18.79;101104.16;6112677;23;6943;-74
2022/03/10 12:29:08;;;;;;;;;;;;;;;29.32;19.30;101107.03;6112290;23;6989;-74
2022/03/10 12:31:37;;;;;;;;;;;;;;;29.28;19.25;101105.38;6110623;23;6983;-74
2022/03/10 12:34:10;;;;;;;;;;;;;;;29.18;19.58;101099.38;6110847;23;6922;-74
2022/03/10 12:36:51;;;;;;;;;;;;;;;28.48;19.58;101092.63;6112626;23;6954;-74
2022/03/10 12:39:22;;;;;;;;;;;;;;;27.31;20.38;101102.00;6109639;23;6940;-74
2022/03/10 12:41:53;;;;;;;;;;;;;;;26.20;20.52;101095.00;6109412;23;7012;-73
2022/03/10 12:44:22;;;;;;;;;;;;;;;25.18;21.64;101093.59;6113795;23;6863;-74
2022/03/10 12:46:52;;;;;;;;;;;;;;;24.39;21.67;101094.47;6113892;23;7193;-74
2022/03/10 12:49:37;;;;;;;;;;;;;;;23.74;22.14;101093.34;6112349;23;7034;-74
2022/03/10 12:52:12;;;;;;;;;;;;;;;23.17;22.62;101089.53;6113293;23;6779;-74
2022/03/10 12:54:39;;;;;;;;;;;;;;;22.74;23.15;101092.69;6111739;23;7301;-74
2022/03/10 12:57:08;;;;;;;;;;;;;;;22.38;23.08;101083.59;6112262;23;6790;-73
2022/03/10 12:59:36;;;;;;;;;;;;;;;22.09;23.42;101073.72;6111400;23;6970;-73
2022/03/10 13:02:26;;;;;;;;;;;;;;;21.88;23.53;101077.84;6111075;23;6960;-73